Brive-Souillac

LFSL · Corrèze, Nouvelle-Aquitaine, France

METAR history LFSL · Brive-Souillac

Below you see METARs of the last few days. Select a year to browse through older METARs, from the year 2007 onwards.

May 27, 2024

Time Code Weather Temp. Visibility Ceiling Wind METAR/SPECI
14:30
M
16 °C 10 km+ 3,000 ft 250° 250° 4 kt METAR LFSL 271230Z AUTO 25004KT 200V300 9999 BKN030 BKN039 OVC052 16/09 Q1022 TEMPO 4000 SHRA BKN030TCU
14:00
V
16 °C 10 km+ 3,300 ft 330° 330° 4 kt METAR LFSL 271200Z AUTO 33004KT 290V020 9999 FEW027 BKN033 BKN039 16/10 Q1022 TEMPO 4000 SHRA BKN030TCU
13:30
V
15 °C 10 km+ 3,400 ft 310° 310° 7 kt METAR LFSL 271130Z AUTO 31007KT 270V330 9999 FEW027 OVC034 15/10 Q1022 TEMPO 4000 SHRA BKN030TCU
13:00
V
16 °C 10 km+ 3,900 ft 300° 300° 5 kt METAR LFSL 271100Z AUTO 30005KT 250V330 9999 SCT028 OVC039 16/09 Q1022 TEMPO 4000 SHRA BKN030TCU
12:30
V
15 °C 10 km+ 4,000 ft 300° 300° 6 kt METAR LFSL 271030Z AUTO 30006KT 250V320 9999 FEW025 SCT034 OVC040 15/10 Q1022 TEMPO 4000 SHRA BKN030TCU
12:00
M
16 °C 10 km+ 2,900 ft 300° 300° 5 kt METAR LFSL 271000Z AUTO 30005KT 260V010 9999 SCT024 BKN029 BKN037 16/09 Q1022 TEMPO 4000 SHRA BKN030TCU
11:30
M
16 °C 10 km+ 2,600 ft 310° 310° 6 kt METAR LFSL 270930Z AUTO 31006KT 250V340 9999 BKN026 BKN034 OVC056 16/09 Q1022 TEMPO 4000 SHRA BKN030TCU
11:00
V
16 °C 10 km+ 6,400 ft 310° 310° 3 kt METAR LFSL 270900Z AUTO 31003KT 200V010 9999 FEW023 SCT034 BKN064 16/10 Q1021 TEMPO 4000 SHRA BKN030TCU
10:30
M
15 °C 10 km+ 2,100 ft 310° 310° 6 kt METAR LFSL 270830Z AUTO 31006KT 280V350 9999 BKN021 OVC062 15/09 Q1021 TEMPO 4000 SHRA BKN030TCU
10:00
V
15 °C 10 km+ 6,000 ft 320° 320° 3 kt METAR LFSL 270800Z AUTO 32003KT 260V010 9999 SCT018 OVC060 15/09 Q1021 TEMPO 4000 SHRA BKN030TCU
09:30
V
14 °C 10 km+ 6,200 ft 310° 310° 5 kt METAR LFSL 270730Z AUTO 31005KT 290V010 9999 FEW016 BKN062 BKN230 14/09 Q1021 TEMPO 4000 SHRA BKN030TCU
09:00
V
14 °C 10 km+ - 330° 330° 5 kt METAR LFSL 270700Z AUTO 33005KT CAVOK 14/10 Q1021 NOSIG
08:30
V
13 °C 10 km+ - 310° 310° 4 kt METAR LFSL 270630Z AUTO 31004KT 270V340 CAVOK 13/10 Q1021 NOSIG
08:00
V
13 °C 10 km+ - 310° 310° 6 kt METAR LFSL 270600Z AUTO 31006KT CAVOK 13/10 Q1021 NOSIG
07:30
V
12 °C 10 km+ - 320° 320° 4 kt METAR LFSL 270530Z AUTO 32004KT CAVOK 12/10 Q1021 NOSIG
07:00
V
12 °C 10 km+ 4,800 ft 300° 300° 4 kt METAR LFSL 270500Z AUTO 30004KT 9999 BKN048 BKN066 12/10 Q1021 NOSIG
06:30
V
12 °C 10 km+ - 330° 330° 5 kt METAR LFSL 270430Z AUTO 33005KT CAVOK 12/10 Q1020 NOSIG
06:00
V
12 °C 10 km+ 4,900 ft 310° 310° 5 kt METAR LFSL 270400Z AUTO 31005KT 9999 OVC049 12/10 Q1020 NOSIG
05:30
V
13 °C 10 km+ - 320° 320° 5 kt METAR LFSL 270330Z AUTO 32005KT CAVOK 13/10 Q1020 NOSIG
05:00
V
13 °C 10 km+ 5,000 ft 330° 330° 5 kt METAR LFSL 270300Z AUTO 33005KT 9999 SCT020 OVC050 13/10 Q1020
04:30
V
13 °C 10 km+ - 320° 320° 6 kt METAR LFSL 270230Z AUTO 32006KT CAVOK 13/11 Q1020
04:00
V
13 °C 10 km+ - 330° 330° 7 kt METAR LFSL 270200Z AUTO 33007KT CAVOK 13/11 Q1020
03:30
V
14 °C 10 km+ - 340° 340° 7 kt METAR LFSL 270130Z AUTO 34007KT CAVOK 14/11 Q1020
03:00
V
13 °C 10 km+ - 320° 320° 7 kt METAR LFSL 270100Z AUTO 32007KT CAVOK 13/11 Q1021
02:30
V
13 °C 10 km+ - 310° 310° 5 kt METAR LFSL 270030Z AUTO 31005KT CAVOK 13/11 Q1021
02:00
V
14 °C 10 km+ - 310° 310° 5 kt METAR LFSL 270000Z AUTO 31005KT CAVOK 14/11 Q1021
01:30
V
14 °C 10 km+ - 300° 300° 3 kt METAR LFSL 262330Z AUTO 30003KT CAVOK 14/11 Q1021
01:00
V
13 °C 10 km+ - 290° 290° 3 kt METAR LFSL 262300Z AUTO 29003KT CAVOK 13/11 Q1021
00:30
V
14 °C 10 km+ - 280° 280° 3 kt METAR LFSL 262230Z AUTO 28003KT CAVOK 14/11 Q1021
00:00
V
15 °C 10 km+ - 300° 300° 3 kt METAR LFSL 262200Z AUTO 30003KT CAVOK 15/11 Q1021

May 26, 2024

Time Code Weather Temp. Visibility Ceiling Wind METAR/SPECI
23:30
V
15 °C 10 km+ - 290° 290° 3 kt METAR LFSL 262130Z AUTO 29003KT CAVOK 15/10 Q1021
23:00
V
15 °C 10 km+ - 270° 270° 3 kt METAR LFSL 262100Z AUTO 27003KT CAVOK 15/10 Q1021
22:30
V
15 °C 10 km+ - Var Var 2 kt METAR LFSL 262030Z AUTO VRB02KT CAVOK 15/10 Q1021
22:00
V
15 °C 10 km+ - Var Var 2 kt METAR LFSL 262000Z AUTO VRB02KT CAVOK 15/10 Q1021 TEMPO 4500 -RA BKN010
21:30
V
16 °C 10 km+ - Var Var 3 kt METAR LFSL 261930Z AUTO VRB03KT CAVOK 16/10 Q1020 TEMPO 4500 -RA BKN010
21:00
V
16 °C 10 km+ - 260° 260° 3 kt METAR LFSL 261900Z AUTO 26003KT CAVOK 16/10 Q1020 TEMPO 4500 -RA BKN010
20:30
V
17 °C 10 km+ - 280° 280° 4 kt METAR LFSL 261830Z AUTO 28004KT 240V310 CAVOK 17/10 Q1020 TEMPO 4500 -RA BKN010
20:00
V
17 °C 10 km+ - 290° 290° 4 kt METAR LFSL 261800Z AUTO 29004KT 240V330 CAVOK 17/09 Q1020 TEMPO 4500 -RA BKN010
19:30
V
18 °C 10 km+ - 290° 290° 5 kt METAR LFSL 261730Z AUTO 29005KT 250V320 CAVOK 18/08 Q1020 TEMPO 4500 -RA BKN010
19:00
V
18 °C 10 km+ 7,000 ft 310° 310° 5 kt METAR LFSL 261700Z AUTO 31005KT 280V360 9999 FEW049 SCT056 OVC070 18/10 Q1020 TEMPO 4500 -RA BKN010
18:30
V
18 °C 10 km+ - 330° 330° 9 kt METAR LFSL 261630Z AUTO 33009KT CAVOK 18/11 Q1020 TEMPO 4500 -RA BKN010
18:00
V
19 °C 10 km+ 5,200 ft 350° 350° 9 kt METAR LFSL 261600Z AUTO 35009KT 9999 FEW026 SCT041 BKN052 19/12 Q1019 TEMPO 4500 -RA BKN010
17:30
M
19 °C 10 km+ 2,500 ft 340° 340° 8 kt METAR LFSL 261530Z AUTO 34008KT 310V020 9999 BKN025 BKN041 BKN047 19/13 Q1019 TEMPO 4500 -RA BKN010
17:00
V
18 °C 10 km+ 3,600 ft 330° 330° 8 kt METAR LFSL 261500Z AUTO 33008KT 9999 FEW024 BKN036 OVC045 18/13 Q1019 TEMPO 4500 -RA BKN010
16:30
V
18 °C 10 km+ 3,500 ft 330° 330° 8 kt METAR LFSL 261430Z AUTO 33008KT 300V010 9999 SCT030 BKN035 OVC041 18/12 Q1019 TEMPO 4500 -RA BKN010
16:00
V
19 °C 10 km+ 3,400 ft 330° 330° 7 kt METAR LFSL 261400Z AUTO 33007KT 9999 OVC034 19/11 Q1019 TEMPO 4500 -RA BKN010
15:30
V
19 °C 10 km+ 3,300 ft 340° 340° 3 kt METAR LFSL 261330Z AUTO 34003KT 260V020 9999 OVC033 19/12 Q1019 TEMPO 4500 -RA BKN010
15:00
V
19 °C 10 km+ 3,100 ft 310° 310° 3 kt METAR LFSL 261300Z AUTO 31003KT 260V350 9999 BKN031 OVC041 19/12 Q1019 TEMPO 4500 -RA BKN010
14:30
V
19 °C 10 km+ 3,500 ft 290° 290° 3 kt METAR LFSL 261230Z AUTO 29003KT 220V020 9999 BKN035 BKN042 BKN054 19/11 Q1019 TEMPO 4500 -RA BKN010
14:00
V
19 °C 10 km+ 3,800 ft 320° 320° 4 kt METAR LFSL 261200Z AUTO 32004KT 240V010 9999 FEW023 SCT029 OVC038 19/12 Q1019 TEMPO 4500 -RA BKN010
13:30
V
19 °C 10 km+ 8,600 ft Var Var 4 kt METAR LFSL 261130Z AUTO VRB04KT 9999 FEW024 SCT034 BKN086 19/13 Q1020 NOSIG
13:00
V
18 °C 10 km+ 3,100 ft 260° 260° 4 kt METAR LFSL 261100Z AUTO 26004KT 220V320 9999 FEW023 OVC031 18/13 Q1020 TEMPO 2000 -RA BKN002 OVC010
12:30
M
18 °C 10 km+ 2,600 ft 210° 210° 3 kt METAR LFSL 261030Z AUTO 21003KT 110V270 9999 FEW019 OVC026 18/12 Q1020 TEMPO 2000 -RA BKN002 OVC010
12:00
M
17 °C 10 km+ 2,300 ft 260° 260° 4 kt METAR LFSL 261000Z AUTO 26004KT 210V310 9999 SCT016 BKN023 OVC050 17/13 Q1020 TEMPO 2000 -RA BKN002 OVC010
11:30
M
17 °C 10 km+ 1,800 ft Var Var 3 kt METAR LFSL 260930Z AUTO VRB03KT 9999 SCT010 BKN018 OVC049 17/13 Q1019 TEMPO 2000 -RA BKN002 OVC010
11:00
M
16 °C 10 km+ 1,200 ft 330° 330° 3 kt METAR LFSL 260900Z AUTO 33003KT 300V010 9999 SCT006/// BKN012/// BKN018/// //////TCU 16/13 Q1019 TEMPO 2000 -RA BKN002 OVC010
10:30
M
15 °C 10 km+ 1,600 ft Var Var 2 kt METAR LFSL 260830Z AUTO VRB02KT 9999 -RA OVC016/// //////TCU 15/14 Q1019 TEMPO 2000 -RA BKN002 OVC010
10:00
M
14 °C 10 km+ 1,700 ft Var Var 2 kt METAR LFSL 260800Z AUTO VRB02KT 9999 SCT008/// BKN017/// OVC070/// //////TCU 14/13 Q1019 TEMPO 2000 -RA BKN002 OVC010
09:30
I
14 °C 7 km 800 ft Var Var 2 kt METAR LFSL 260730Z AUTO VRB02KT 7000 -RA BKN008/// BKN016/// BKN038/// //////CB 14/13 Q1019 TEMPO 2000 -RA BKN002 OVC010
09:00
M
15 °C 10 km+ 1,000 ft 320° 320° 5 kt METAR LFSL 260700Z AUTO 32005KT 280V350 9999 -RA OVC010/// //////TCU 15/12 Q1018 TEMPO 2000 -RA BKN002 OVC010
08:30
M
15 °C 10 km+ 1,200 ft 290° 290° 3 kt METAR LFSL 260630Z AUTO 29003KT 260V330 9999 BKN012/// OVC066/// ///CB 15/12 Q1018 TEMPO 2000 -RA BKN002 OVC010
08:00
V
14 °C 10 km+ - Var Var 1 kt METAR LFSL 260600Z AUTO VRB01KT CAVOK 14/11 Q1018 BECMG BKN010
07:30
V
13 °C 10 km+ - 360° 360° 0 kt METAR LFSL 260530Z AUTO 00000KT 9999 ///TCU 13/10 Q1018 BECMG BKN010
07:00
V
13 °C 10 km+ - 070° 070° 1 kt METAR LFSL 260500Z AUTO 07001KT CAVOK 13/10 Q1017 BECMG BKN010
06:30
V
13 °C 10 km+ - 360° 360° 0 kt METAR LFSL 260430Z AUTO 00000KT CAVOK 13/10 Q1017 BECMG BKN010
06:00
V
13 °C 10 km+ - 110° 110° 3 kt METAR LFSL 260400Z AUTO 11003KT CAVOK 13/10 Q1017 BECMG BKN010
05:30
V
13 °C 10 km+ - 140° 140° 2 kt METAR LFSL 260330Z AUTO 14002KT CAVOK 13/10 Q1016 BECMG BKN010
05:00
V
13 °C 10 km+ - 130° 130° 3 kt METAR LFSL 260300Z AUTO 13003KT CAVOK 13/10 Q1016 NOSIG
04:30
V
13 °C 10 km+ - 090° 090° 3 kt METAR LFSL 260230Z AUTO 09003KT CAVOK 13/10 Q1016
04:00
V
12 °C 10 km+ - Var Var 1 kt METAR LFSL 260200Z AUTO VRB01KT CAVOK 12/10 Q1016
03:30
V
12 °C 10 km+ - Var Var 1 kt METAR LFSL 260130Z AUTO VRB01KT CAVOK 12/10 Q1016
03:00
V
13 °C 10 km+ - 360° 360° 0 kt METAR LFSL 260100Z AUTO 00000KT CAVOK 13/10 Q1016
02:30
V
13 °C 10 km+ - Var Var 2 kt METAR LFSL 260030Z AUTO VRB02KT CAVOK 13/10 Q1016
02:00
V
13 °C 10 km+ - Var Var 2 kt METAR LFSL 260000Z AUTO VRB02KT CAVOK 13/11 Q1016
01:30
V
13 °C 10 km+ - 360° 360° 0 kt METAR LFSL 252330Z AUTO 00000KT CAVOK 13/10 Q1016
01:00
V
13 °C 10 km+ - Var Var 2 kt METAR LFSL 252300Z AUTO VRB02KT CAVOK 13/10 Q1016
00:30
V
14 °C 10 km+ - Var Var 2 kt METAR LFSL 252230Z AUTO VRB02KT CAVOK 14/10 Q1016
00:00
V
13 °C 10 km+ - Var Var 2 kt METAR LFSL 252200Z AUTO VRB02KT CAVOK 13/11 Q1016

May 25, 2024

Time Code Weather Temp. Visibility Ceiling Wind METAR/SPECI
23:30
V
13 °C 10 km+ - 360° 360° 0 kt METAR LFSL 252130Z AUTO 00000KT CAVOK 13/10 Q1016
23:00
V
14 °C 10 km+ - 360° 360° 0 kt METAR LFSL 252100Z AUTO 00000KT CAVOK 14/11 Q1017
22:30
V
15 °C 10 km+ - 360° 360° 0 kt METAR LFSL 252030Z AUTO 00000KT CAVOK 15/11 Q1016
22:00
V
16 °C 10 km+ - 360° 360° 0 kt METAR LFSL 252000Z AUTO 00000KT CAVOK 16/12 Q1016 NOSIG
21:30
V
18 °C 10 km+ - 360° 360° 0 kt METAR LFSL 251930Z AUTO 00000KT CAVOK 18/12 Q1016 NOSIG
21:00
V
19 °C 10 km+ - 360° 360° 0 kt METAR LFSL 251900Z AUTO 00000KT CAVOK 19/13 Q1016 NOSIG
20:30
V
21 °C 10 km+ - 040° 040° 2 kt METAR LFSL 251830Z AUTO 04002KT CAVOK 21/11 Q1015 NOSIG
20:00
V
21 °C 10 km+ - Var Var 2 kt METAR LFSL 251800Z AUTO VRB02KT CAVOK 21/09 Q1015 NOSIG
19:30
V
21 °C 10 km+ - 080° 080° 5 kt METAR LFSL 251730Z AUTO 08005KT CAVOK 21/09 Q1015 NOSIG
19:00
V
22 °C 10 km+ - 130° 130° 3 kt METAR LFSL 251700Z AUTO 13003KT 070V210 CAVOK 22/07 Q1015 NOSIG
18:30
V
22 °C 10 km+ - 120° 120° 5 kt METAR LFSL 251630Z AUTO 12005KT 080V150 CAVOK 22/07 Q1015 NOSIG
18:00
V
22 °C 10 km+ - 140° 140° 5 kt METAR LFSL 251600Z AUTO 14005KT 070V210 CAVOK 22/06 Q1015 NOSIG
17:30
V
22 °C 10 km+ - 160° 160° 3 kt METAR LFSL 251530Z AUTO 16003KT 120V210 CAVOK 22/07 Q1016 NOSIG
17:00
V
22 °C 10 km+ - 150° 150° 6 kt METAR LFSL 251500Z AUTO 15006KT 090V210 CAVOK 22/07 Q1015 NOSIG
16:30
V
22 °C 10 km+ - 190° 190° 4 kt METAR LFSL 251430Z AUTO 19004KT 140V300 CAVOK 22/07 Q1016 NOSIG
16:00
V
22 °C 10 km+ - 150° 150° 6 kt METAR LFSL 251400Z AUTO 15006KT 100V230 CAVOK 22/07 Q1016 NOSIG
15:30
V
22 °C 10 km+ - Var Var 3 kt METAR LFSL 251330Z AUTO VRB03KT CAVOK 22/07 Q1016 NOSIG
15:00
V
21 °C 10 km+ - 170° 170° 3 kt METAR LFSL 251300Z AUTO 17003KT 120V220 CAVOK 21/07 Q1017 NOSIG
14:30
V
21 °C 10 km+ - 160° 160° 4 kt METAR LFSL 251230Z AUTO 16004KT 090V200 CAVOK 21/07 Q1016 NOSIG
14:00
V
21 °C 10 km+ - 160° 160° 5 kt METAR LFSL 251200Z AUTO 16005KT 060V210 CAVOK 21/08 Q1016 NOSIG
13:30
V
20 °C 10 km+ - Var Var 3 kt METAR LFSL 251130Z AUTO VRB03KT CAVOK 20/09 Q1017 NOSIG
13:00
V
20 °C 10 km+ - 180° 180° 5 kt METAR LFSL 251100Z AUTO 18005KT 130V240 CAVOK 20/07 Q1017 NOSIG
12:30
V
20 °C 10 km+ - 180° 180° 5 kt METAR LFSL 251030Z AUTO 18005KT 120V250 CAVOK 20/08 Q1017 NOSIG
12:00
V
19 °C 10 km+ - 150° 150° 5 kt METAR LFSL 251000Z AUTO 15005KT 070V210 CAVOK 19/08 Q1017 NOSIG
11:30
V
18 °C 10 km+ - 170° 170° 5 kt METAR LFSL 250930Z AUTO 17005KT 110V210 CAVOK 18/08 Q1017 NOSIG
11:00
V
17 °C 10 km+ - 160° 160° 5 kt METAR LFSL 250900Z AUTO 16005KT 110V200 CAVOK 17/09 Q1017 NOSIG
10:30
V
16 °C 10 km+ - 150° 150° 4 kt METAR LFSL 250830Z AUTO 15004KT 100V210 CAVOK 16/09 Q1018 NOSIG
10:00
V
14 °C 10 km+ - 130° 130° 4 kt METAR LFSL 250800Z AUTO 13004KT CAVOK 14/09 Q1018 NOSIG
09:30
V
13 °C 10 km+ - 110° 110° 5 kt METAR LFSL 250730Z AUTO 11005KT CAVOK 13/09 Q1018 NOSIG
09:00
V
12 °C 10 km+ - 140° 140° 5 kt METAR LFSL 250700Z AUTO 14005KT 120V180 CAVOK 12/09 Q1017 NOSIG
08:30
V
12 °C 10 km+ - 120° 120° 5 kt METAR LFSL 250630Z AUTO 12005KT CAVOK 12/09 Q1017 NOSIG
08:00
V
11 °C 10 km+ - 110° 110° 4 kt METAR LFSL 250600Z AUTO 11004KT CAVOK 11/09 Q1017 NOSIG
Report a change